createdAt,value
2023-04-20T00:07:59.078Z,7.24
2023-04-20T00:18:01.636Z,6.66
2023-04-20T00:28:03.739Z,7.01
2023-04-20T00:38:05.893Z,7.01
2023-04-20T00:48:07.926Z,6.87
2023-04-20T00:58:11.529Z,6.63
2023-04-20T01:08:13.589Z,6.46
2023-04-20T01:18:18.920Z,6.98
2023-04-20T01:28:21.148Z,7.01
2023-04-20T01:38:23.923Z,7.10
2023-04-20T01:48:26.028Z,6.90
2023-04-20T01:58:29.191Z,6.35
2023-04-20T02:08:31.360Z,6.59
2023-04-20T02:18:33.568Z,6.69
2023-04-20T02:28:36.014Z,6.51
2023-04-20T02:38:40.153Z,6.13
2023-04-20T02:48:42.919Z,6.45
2023-04-20T02:58:48.188Z,6.28
2023-04-20T03:09:10.544Z,6.12
2023-04-20T03:19:28.178Z,6.05
2023-04-20T03:29:30.736Z,6.08
2023-04-20T03:39:33.449Z,6.28
2023-04-20T03:49:35.945Z,5.77
2023-04-20T03:59:38.422Z,5.82
2023-04-20T04:09:42.123Z,5.73
2023-04-20T04:19:45.025Z,5.60
2023-04-20T04:29:47.218Z,5.43
2023-04-20T04:39:53.898Z,5.93
2023-04-20T04:50:05.760Z,5.65
2023-04-20T05:00:12.475Z,5.81
2023-04-20T05:10:15.347Z,5.58
2023-04-20T05:20:18.131Z,5.60
2023-04-20T05:30:21.906Z,5.17
2023-04-20T05:40:24.510Z,4.86
2023-04-20T05:50:27.196Z,4.82
2023-04-20T06:00:29.336Z,4.77
2023-04-20T06:10:34.079Z,4.79
2023-04-20T06:20:36.422Z,4.79
2023-04-20T06:30:38.649Z,4.72
2023-04-20T06:40:41.110Z,5.22
2023-04-20T06:50:43.316Z,5.43
2023-04-20T07:00:45.718Z,6.01
2023-04-20T07:10:47.958Z,5.43
2023-04-20T07:20:50.224Z,5.59
2023-04-20T07:30:52.308Z,5.86
2023-04-20T07:40:54.598Z,5.45
2023-04-20T07:50:56.719Z,5.87
2023-04-20T08:00:59.890Z,5.84
2023-04-20T08:11:02.054Z,5.62
2023-04-20T08:21:04.745Z,6.00
2023-04-20T08:31:06.959Z,4.95
2023-04-20T08:41:09.152Z,5.93
2023-04-20T08:51:12.098Z,5.11
2023-04-20T09:01:17.731Z,6.03
2023-04-20T09:11:23.118Z,5.92
2023-04-20T09:21:28.067Z,5.82
2023-04-20T09:31:30.394Z,5.84
2023-04-20T09:41:33.580Z,5.43
2023-04-20T09:51:37.644Z,4.90
2023-04-20T10:01:40.288Z,6.23
2023-04-20T10:11:52.407Z,6.43
2023-04-20T10:21:56.649Z,6.15
2023-04-20T10:31:58.981Z,6.71
2023-04-20T10:42:03.706Z,7.04
2023-04-20T10:52:05.878Z,7.25
2023-04-20T11:02:08.425Z,7.52
2023-04-20T11:12:15.710Z,7.11
2023-04-20T11:23:16.853Z,7.81
2023-04-20T11:33:28.644Z,8.46
2023-04-20T11:43:32.440Z,7.34
2023-04-20T11:53:34.875Z,7.79
2023-04-20T12:03:37.307Z,8.69
2023-04-20T12:13:39.659Z,8.55
2023-04-20T12:23:42.760Z,7.99
2023-04-20T12:33:44.833Z,9.46
2023-04-20T12:43:46.995Z,8.43
2023-04-20T12:53:49.182Z,8.79
2023-04-20T13:03:52.756Z,9.33
2023-04-20T13:13:56.490Z,8.75
2023-04-20T13:23:58.649Z,8.18
2023-04-20T13:34:01.244Z,7.96
2023-04-20T13:44:04.739Z,10.01
2023-04-20T13:54:08.392Z,9.46
2023-04-20T14:04:10.932Z,9.43
2023-04-20T14:14:13.308Z,9.27
2023-04-20T14:24:15.609Z,10.06
2023-04-20T14:34:18.114Z,9.28
2023-04-20T14:44:20.666Z,10.11
2023-04-20T14:54:22.897Z,9.29
2023-04-20T15:04:25.322Z,9.35
2023-04-20T15:14:28.174Z,9.40
2023-04-20T15:24:30.513Z,9.68
2023-04-20T15:34:32.620Z,10.22
2023-04-20T15:44:34.816Z,10.54
2023-04-20T15:54:37.239Z,9.88
2023-04-20T16:04:39.389Z,9.79
2023-04-20T16:14:41.687Z,10.07
2023-04-20T16:24:43.815Z,9.08
2023-04-20T16:34:45.925Z,9.32
2023-04-20T16:44:48.000Z,9.48
2023-04-20T16:54:50.121Z,7.63
2023-04-20T17:04:52.233Z,7.61
2023-04-20T17:14:55.203Z,7.65
2023-04-20T17:24:57.599Z,8.20
2023-04-20T17:34:59.864Z,8.03
2023-04-20T17:45:01.906Z,8.42
2023-04-20T17:55:04.236Z,8.27
2023-04-20T18:05:06.833Z,8.13
2023-04-20T18:15:09.447Z,8.12
2023-04-20T18:25:11.524Z,8.46
2023-04-20T18:35:13.681Z,8.02
2023-04-20T18:45:16.040Z,7.70
2023-04-20T18:55:18.117Z,8.08
2023-04-20T19:05:20.245Z,7.40
2023-04-20T19:15:25.599Z,8.03
2023-04-20T19:25:27.927Z,7.30
2023-04-20T19:35:30.184Z,7.41
2023-04-20T19:45:32.250Z,7.91
2023-04-20T19:55:34.414Z,7.56
2023-04-20T20:05:36.455Z,7.58
2023-04-20T20:15:38.718Z,7.41
2023-04-20T20:25:40.944Z,7.10
2023-04-20T20:35:43.055Z,6.30
2023-04-20T20:45:45.280Z,6.62
2023-04-20T20:55:47.455Z,7.20
2023-04-20T21:05:49.681Z,8.03
2023-04-20T21:15:51.788Z,7.54
2023-04-20T21:25:54.071Z,7.28
2023-04-20T21:35:58.365Z,7.64
2023-04-20T21:46:01.116Z,7.22
2023-04-20T21:56:03.305Z,8.06
2023-04-20T22:06:06.376Z,7.45
2023-04-20T22:16:08.479Z,7.62
2023-04-20T22:26:10.610Z,7.78
2023-04-20T22:36:13.133Z,7.33
2023-04-20T22:46:15.309Z,7.31
2023-04-20T22:56:17.618Z,7.11
2023-04-20T23:06:21.800Z,7.03
2023-04-20T23:16:23.987Z,7.33
2023-04-20T23:26:26.082Z,7.51
2023-04-20T23:36:28.136Z,7.48
2023-04-20T23:46:30.413Z,7.29
2023-04-20T23:56:32.529Z,7.53
